JBU970 KFLL-KBOS
Flight info
| Callsign | JBU970 |
|---|---|
| Flight time | 2h 48m |
| Altitude | 35000 |
| Route | FEALX2 ETECK GRUBR Y299 SEELO WAALT Q131 EARZZ JAMIE CONFR Q133 JFK ROBUC3 |
| Aircraft | A321/M-SDE3FGHIRWY/LB1 |
Departure
| Time | 2026-05-06 20:08 |
|---|---|
| Airport | Fort Lauderdale Hollywood International Airport (KFLL) |
Arrival
| Time | 2026-05-06 22:57 |
|---|---|
| Airport | Boston Logan International Airport (KBOS) |
| Time | Latitude | Longitude | Altitude | Speed | Heading |
|---|---|---|---|---|---|
| 2026-05-06 19:30 | 26.07055 | -80.14710 | 21 ft | 0 kts | 50° |
| 2026-05-06 19:59 | 26.07054 | -80.14712 | 21 ft | 2 kts | 50° |
| 2026-05-06 20:00 | 26.07038 | -80.14733 | 22 ft | 4 kts | 50° |
| 2026-05-06 20:00 | 26.07019 | -80.14755 | 23 ft | 5 kts | 36° |
| 2026-05-06 20:00 | 26.07000 | -80.14764 | 22 ft | 5 kts | 334° |
| 2026-05-06 20:00 | 26.06996 | -80.14761 | 22 ft | 2 kts | 315° |
| 2026-05-06 20:02 | 26.06996 | -80.14762 | 22 ft | 1 kts | 315° |
| 2026-05-06 20:03 | 26.07008 | -80.14775 | 23 ft | 4 kts | 315° |
| 2026-05-06 20:03 | 26.07038 | -80.14807 | 23 ft | 8 kts | 315° |
| 2026-05-06 20:03 | 26.07091 | -80.14849 | 21 ft | 11 kts | 340° |
| 2026-05-06 20:03 | 26.07181 | -80.14855 | 21 ft | 14 kts | 360° |
| 2026-05-06 20:04 | 26.07290 | -80.14856 | 21 ft | 17 kts | 359° |
| 2026-05-06 20:04 | 26.07414 | -80.14841 | 21 ft | 19 kts | 29° |
| 2026-05-06 20:04 | 26.07531 | -80.14793 | 21 ft | 19 kts | 309° |
| 2026-05-06 20:04 | 26.07563 | -80.14941 | 21 ft | 21 kts | 271° |
| 2026-05-06 20:05 | 26.07565 | -80.15113 | 21 ft | 23 kts | 269° |
| 2026-05-06 20:05 | 26.07562 | -80.15298 | 21 ft | 25 kts | 271° |
| 2026-05-06 20:05 | 26.07565 | -80.15497 | 21 ft | 27 kts | 272° |
| 2026-05-06 20:05 | 26.07568 | -80.15711 | 21 ft | 28 kts | 269° |
| 2026-05-06 20:06 | 26.07567 | -80.15936 | 22 ft | 30 kts | 271° |
| 2026-05-06 20:06 | 26.07569 | -80.16171 | 22 ft | 31 kts | 270° |
| 2026-05-06 20:06 | 26.07570 | -80.16415 | 22 ft | 32 kts | 270° |
| 2026-05-06 20:06 | 26.07603 | -80.16552 | 22 ft | 16 kts | 332° |
| 2026-05-06 20:07 | 26.07687 | -80.16513 | 24 ft | 16 kts | 96° |
| 2026-05-06 20:07 | 26.07695 | -80.16379 | 26 ft | 24 kts | 90° |
| 2026-05-06 20:07 | 26.07691 | -80.15957 | 24 ft | 84 kts | 91° |
| 2026-05-06 20:07 | 26.07686 | -80.15116 | 21 ft | 133 kts | 90° |
| 2026-05-06 20:08 | 26.07677 | -80.13958 | 176 ft | 155 kts | 92° |
| 2026-05-06 20:08 | 26.07669 | -80.12790 | 758 ft | 149 kts | 92° |
| 2026-05-06 20:08 | 26.07750 | -80.11609 | 1266 ft | 155 kts | 80° |
| 2026-05-06 20:08 | 26.07921 | -80.10390 | 1740 ft | 168 kts | 87° |
| 2026-05-06 20:09 | 26.07866 | -80.09013 | 2060 ft | 185 kts | 95° |
| 2026-05-06 20:09 | 26.07810 | -80.07540 | 2375 ft | 196 kts | 91° |
| 2026-05-06 20:09 | 26.07803 | -80.05969 | 2702 ft | 209 kts | 90° |
| 2026-05-06 20:09 | 26.07808 | -80.04301 | 3041 ft | 222 kts | 90° |
| 2026-05-06 20:10 | 26.07815 | -80.02517 | 3286 ft | 240 kts | 90° |
| 2026-05-06 20:10 | 26.08032 | -80.00615 | 3560 ft | 257 kts | 71° |
| 2026-05-06 20:10 | 26.08879 | -79.98844 | 3955 ft | 269 kts | 54° |
| 2026-05-06 20:10 | 26.10012 | -79.97167 | 4562 ft | 273 kts | 52° |
| 2026-05-06 20:11 | 26.11177 | -79.95473 | 5156 ft | 278 kts | 53° |
| 2026-05-06 20:11 | 26.12344 | -79.93746 | 5792 ft | 280 kts | 53° |
| 2026-05-06 20:11 | 26.13501 | -79.92004 | 6485 ft | 280 kts | 53° |
| 2026-05-06 20:11 | 26.14649 | -79.90257 | 7115 ft | 280 kts | 53° |
| 2026-05-06 20:12 | 26.15799 | -79.88503 | 7739 ft | 281 kts | 53° |
| 2026-05-06 20:12 | 26.16949 | -79.86748 | 8358 ft | 280 kts | 52° |
| 2026-05-06 20:12 | 26.18103 | -79.84984 | 8931 ft | 283 kts | 52° |
| 2026-05-06 20:12 | 26.19266 | -79.83204 | 9464 ft | 286 kts | 52° |
| 2026-05-06 20:13 | 26.20442 | -79.81403 | 9999 ft | 289 kts | 52° |
| 2026-05-06 20:13 | 26.21636 | -79.79572 | 10354 ft | 298 kts | 52° |
| 2026-05-06 20:13 | 26.22883 | -79.77664 | 10566 ft | 312 kts | 52° |
| 2026-05-06 20:13 | 26.24186 | -79.75667 | 10749 ft | 326 kts | 52° |
| 2026-05-06 20:14 | 26.25546 | -79.73578 | 10922 ft | 340 kts | 52° |
| 2026-05-06 20:14 | 26.26960 | -79.71408 | 11089 ft | 353 kts | 52° |
| 2026-05-06 20:14 | 26.28424 | -79.69159 | 11301 ft | 363 kts | 52° |
| 2026-05-06 20:14 | 26.30034 | -79.66972 | 11686 ft | 366 kts | 45° |
| 2026-05-06 20:15 | 26.31778 | -79.64949 | 12138 ft | 368 kts | 44° |
| 2026-05-06 20:15 | 26.33571 | -79.62903 | 12617 ft | 369 kts | 44° |
| 2026-05-06 20:15 | 26.35364 | -79.60854 | 13098 ft | 370 kts | 44° |
| 2026-05-06 20:15 | 26.37159 | -79.58798 | 13584 ft | 371 kts | 44° |
| 2026-05-06 20:16 | 26.38959 | -79.56727 | 14024 ft | 372 kts | 44° |
| 2026-05-06 20:16 | 26.40766 | -79.54643 | 14390 ft | 375 kts | 44° |
| 2026-05-06 20:16 | 26.42585 | -79.52539 | 14748 ft | 378 kts | 44° |
| 2026-05-06 20:16 | 26.44415 | -79.50421 | 15102 ft | 381 kts | 44° |
| 2026-05-06 20:17 | 26.46261 | -79.48287 | 15441 ft | 383 kts | 43° |
| 2026-05-06 20:17 | 26.48128 | -79.46144 | 15799 ft | 386 kts | 43° |
| 2026-05-06 20:17 | 26.50006 | -79.43992 | 16134 ft | 389 kts | 43° |
| 2026-05-06 20:17 | 26.51900 | -79.41812 | 16480 ft | 392 kts | 43° |
| 2026-05-06 20:18 | 26.53813 | -79.39611 | 16820 ft | 394 kts | 43° |
| 2026-05-06 20:18 | 26.55856 | -79.37582 | 17162 ft | 394 kts | 33° |
| 2026-05-06 20:18 | 26.58132 | -79.35942 | 17484 ft | 395 kts | 28° |
| 2026-05-06 20:18 | 26.60494 | -79.34354 | 17815 ft | 397 kts | 28° |
| 2026-05-06 20:19 | 26.62871 | -79.32762 | 18151 ft | 400 kts | 28° |
| 2026-05-06 20:19 | 26.65258 | -79.31151 | 18467 ft | 402 kts | 28° |
| 2026-05-06 20:19 | 26.67657 | -79.29523 | 18755 ft | 404 kts | 28° |
| 2026-05-06 20:19 | 26.70065 | -79.27882 | 19049 ft | 406 kts | 28° |
| 2026-05-06 20:20 | 26.72483 | -79.26231 | 19344 ft | 408 kts | 28° |
| 2026-05-06 20:20 | 26.74911 | -79.24576 | 19628 ft | 410 kts | 28° |
| 2026-05-06 20:20 | 26.77351 | -79.22910 | 19922 ft | 412 kts | 28° |
| 2026-05-06 20:20 | 26.79806 | -79.21229 | 20218 ft | 414 kts | 28° |
| 2026-05-06 20:21 | 26.82266 | -79.19531 | 20508 ft | 416 kts | 28° |
| 2026-05-06 20:21 | 26.83904 | -79.18403 | 20693 ft | 417 kts | 28° |
| 2026-05-06 20:21 | 26.86382 | -79.16699 | 20973 ft | 419 kts | 28° |
| 2026-05-06 20:21 | 26.88876 | -79.14991 | 21254 ft | 421 kts | 27° |
| 2026-05-06 20:22 | 26.92199 | -79.12712 | 21614 ft | 424 kts | 27° |
| 2026-05-06 20:22 | 26.93900 | -79.11544 | 21804 ft | 425 kts | 27° |
| 2026-05-06 20:22 | 26.96429 | -79.09812 | 22079 ft | 427 kts | 27° |
| 2026-05-06 20:22 | 26.98974 | -79.08067 | 22345 ft | 429 kts | 27° |
| 2026-05-06 20:23 | 27.01494 | -79.06346 | 22602 ft | 431 kts | 27° |
| 2026-05-06 20:23 | 27.04056 | -79.04591 | 22851 ft | 433 kts | 27° |
| 2026-05-06 20:23 | 27.06636 | -79.02825 | 23117 ft | 435 kts | 27° |
| 2026-05-06 20:23 | 27.09220 | -79.01053 | 23362 ft | 437 kts | 27° |
| 2026-05-06 20:24 | 27.11822 | -78.99265 | 23614 ft | 439 kts | 27° |
| 2026-05-06 20:24 | 27.14428 | -78.97471 | 23830 ft | 441 kts | 27° |
| 2026-05-06 20:24 | 27.17046 | -78.95661 | 24040 ft | 442 kts | 27° |
| 2026-05-06 20:24 | 27.19672 | -78.93849 | 24253 ft | 444 kts | 27° |
| 2026-05-06 20:25 | 27.22311 | -78.92031 | 24465 ft | 446 kts | 27° |
| 2026-05-06 20:25 | 27.24966 | -78.90215 | 24676 ft | 447 kts | 27° |
| 2026-05-06 20:25 | 27.27631 | -78.88395 | 24893 ft | 448 kts | 26° |
| 2026-05-06 20:25 | 27.30300 | -78.86573 | 25105 ft | 450 kts | 26° |
| 2026-05-06 20:26 | 27.32977 | -78.84739 | 25311 ft | 451 kts | 26° |
| 2026-05-06 20:26 | 27.35658 | -78.82893 | 25522 ft | 453 kts | 27° |
| 2026-05-06 20:26 | 27.38372 | -78.81089 | 25723 ft | 452 kts | 22° |
| 2026-05-06 20:26 | 27.41265 | -78.79772 | 25917 ft | 446 kts | 12° |
| 2026-05-06 20:27 | 27.44287 | -78.79088 | 26117 ft | 443 kts | 4° |
| 2026-05-06 20:27 | 27.47340 | -78.78651 | 26330 ft | 443 kts | 2° |
| 2026-05-06 20:27 | 27.50411 | -78.78235 | 26543 ft | 445 kts | 2° |
| 2026-05-06 20:27 | 27.53486 | -78.77807 | 26750 ft | 446 kts | 3° |
| 2026-05-06 20:28 | 27.56568 | -78.77366 | 26953 ft | 447 kts | 3° |
| 2026-05-06 20:28 | 27.59662 | -78.76909 | 27163 ft | 448 kts | 3° |
| 2026-05-06 20:28 | 27.62757 | -78.76447 | 27358 ft | 450 kts | 3° |
| 2026-05-06 20:28 | 27.65864 | -78.75988 | 27547 ft | 451 kts | 3° |
| 2026-05-06 20:29 | 27.68979 | -78.75535 | 27740 ft | 452 kts | 2° |
| 2026-05-06 20:29 | 27.72061 | -78.75089 | 27930 ft | 453 kts | 2° |
| 2026-05-06 20:29 | 27.75186 | -78.74633 | 28178 ft | 452 kts | 2° |
| 2026-05-06 20:29 | 27.78301 | -78.74177 | 28432 ft | 451 kts | 2° |
| 2026-05-06 20:30 | 27.81417 | -78.73721 | 28697 ft | 451 kts | 2° |
| 2026-05-06 20:30 | 27.87627 | -78.72805 | 29208 ft | 449 kts | 2° |
| 2026-05-06 20:30 | 27.90723 | -78.72351 | 29445 ft | 448 kts | 2° |
| 2026-05-06 20:31 | 27.93817 | -78.71894 | 29687 ft | 448 kts | 2° |
| 2026-05-06 20:31 | 27.96908 | -78.71438 | 29931 ft | 447 kts | 2° |
| 2026-05-06 20:31 | 27.99991 | -78.70982 | 30166 ft | 447 kts | 2° |
| 2026-05-06 20:31 | 28.03068 | -78.70529 | 30368 ft | 446 kts | 2° |
| 2026-05-06 20:32 | 28.06145 | -78.70077 | 30567 ft | 445 kts | 2° |
| 2026-05-06 20:32 | 28.09217 | -78.69623 | 30775 ft | 445 kts | 1° |
| 2026-05-06 20:32 | 28.12285 | -78.69169 | 30986 ft | 444 kts | 1° |
| 2026-05-06 20:32 | 28.15345 | -78.68715 | 31192 ft | 443 kts | 1° |
| 2026-05-06 20:33 | 28.18400 | -78.68261 | 31393 ft | 442 kts | 1° |
| 2026-05-06 20:33 | 28.21455 | -78.67809 | 31592 ft | 442 kts | 1° |
| 2026-05-06 20:33 | 28.24504 | -78.67358 | 31774 ft | 441 kts | 1° |
| 2026-05-06 20:33 | 28.27546 | -78.66909 | 31958 ft | 441 kts | 1° |
| 2026-05-06 20:34 | 28.30589 | -78.66458 | 32139 ft | 440 kts | 1° |
| 2026-05-06 20:34 | 28.33621 | -78.66007 | 32321 ft | 440 kts | 1° |
| 2026-05-06 20:34 | 28.36650 | -78.65554 | 32513 ft | 439 kts | 1° |
| 2026-05-06 20:34 | 28.39642 | -78.65108 | 32701 ft | 438 kts | 1° |
| 2026-05-06 20:35 | 28.42664 | -78.64658 | 32882 ft | 438 kts | 1° |
| 2026-05-06 20:35 | 28.45679 | -78.64211 | 33062 ft | 437 kts | 1° |
| 2026-05-06 20:35 | 28.48696 | -78.63763 | 33240 ft | 436 kts | 1° |
| 2026-05-06 20:35 | 28.51704 | -78.63316 | 33415 ft | 436 kts | 1° |
| 2026-05-06 20:36 | 28.54705 | -78.62868 | 33592 ft | 435 kts | 1° |
| 2026-05-06 20:36 | 28.57703 | -78.62422 | 33761 ft | 434 kts | 1° |
| 2026-05-06 20:36 | 28.60701 | -78.61976 | 33928 ft | 434 kts | 1° |
| 2026-05-06 20:36 | 28.63692 | -78.61529 | 34080 ft | 433 kts | 1° |
| 2026-05-06 20:37 | 28.66678 | -78.61082 | 34216 ft | 432 kts | 0° |
| 2026-05-06 20:37 | 28.69656 | -78.60636 | 34338 ft | 432 kts | 0° |
| 2026-05-06 20:37 | 28.72638 | -78.60190 | 34456 ft | 432 kts | 0° |
| 2026-05-06 20:37 | 28.75620 | -78.59744 | 34579 ft | 431 kts | 0° |
| 2026-05-06 20:38 | 28.78595 | -78.59300 | 34697 ft | 431 kts | 0° |
| 2026-05-06 20:38 | 28.81543 | -78.58859 | 34811 ft | 431 kts | 0° |
| 2026-05-06 20:38 | 28.84514 | -78.58414 | 34926 ft | 430 kts | 0° |
| 2026-05-06 20:39 | 28.90452 | -78.57525 | 35100 ft | 430 kts | 0° |
| 2026-05-06 20:39 | 28.96393 | -78.56633 | 35105 ft | 430 kts | 0° |
| 2026-05-06 20:40 | 29.02324 | -78.55740 | 35097 ft | 430 kts | 0° |
| 2026-05-06 20:40 | 29.08251 | -78.54845 | 35095 ft | 430 kts | 0° |
| 2026-05-06 20:41 | 29.14176 | -78.53943 | 35095 ft | 429 kts | 360° |
| 2026-05-06 20:41 | 29.20067 | -78.53051 | 35097 ft | 429 kts | 360° |
| 2026-05-06 20:42 | 29.25987 | -78.52158 | 35098 ft | 429 kts | 360° |
| 2026-05-06 20:42 | 29.31905 | -78.51271 | 35098 ft | 429 kts | 360° |
| 2026-05-06 20:43 | 29.37825 | -78.50378 | 35097 ft | 429 kts | 360° |
| 2026-05-06 20:43 | 29.43745 | -78.49483 | 35097 ft | 429 kts | 360° |
| 2026-05-06 20:44 | 29.49648 | -78.48880 | 35091 ft | 419 kts | 350° |
| 2026-05-06 20:44 | 29.55430 | -78.49444 | 35096 ft | 416 kts | 347° |
| 2026-05-06 20:45 | 29.61162 | -78.50091 | 35096 ft | 416 kts | 347° |
| 2026-05-06 20:45 | 29.66925 | -78.50717 | 35093 ft | 416 kts | 347° |
| 2026-05-06 20:46 | 29.72684 | -78.51342 | 35098 ft | 416 kts | 347° |
| 2026-05-06 20:46 | 29.78449 | -78.51968 | 35097 ft | 416 kts | 347° |
| 2026-05-06 20:47 | 29.84203 | -78.52595 | 35095 ft | 415 kts | 347° |
| 2026-05-06 20:47 | 29.89961 | -78.53216 | 35098 ft | 415 kts | 347° |
| 2026-05-06 20:48 | 29.95712 | -78.53840 | 35098 ft | 415 kts | 347° |
| 2026-05-06 20:48 | 30.01471 | -78.54460 | 35095 ft | 415 kts | 347° |
| 2026-05-06 20:49 | 30.07215 | -78.55084 | 35097 ft | 414 kts | 347° |
| 2026-05-06 20:49 | 30.12959 | -78.55707 | 35091 ft | 415 kts | 348° |
| 2026-05-06 20:50 | 30.18777 | -78.55432 | 35098 ft | 426 kts | 358° |
| 2026-05-06 20:50 | 30.24676 | -78.54560 | 35093 ft | 427 kts | 359° |
| 2026-05-06 20:51 | 30.30562 | -78.53695 | 35099 ft | 426 kts | 358° |
| 2026-05-06 20:51 | 30.36445 | -78.52848 | 35093 ft | 426 kts | 358° |
| 2026-05-06 20:52 | 30.42324 | -78.52004 | 35091 ft | 425 kts | 358° |
| 2026-05-06 20:52 | 30.48190 | -78.51073 | 35095 ft | 426 kts | 359° |
| 2026-05-06 20:53 | 30.54060 | -78.50112 | 35096 ft | 425 kts | 359° |
| 2026-05-06 20:53 | 30.59930 | -78.49158 | 35097 ft | 425 kts | 359° |
| 2026-05-06 20:54 | 30.65747 | -78.48214 | 35099 ft | 424 kts | 359° |
| 2026-05-06 20:54 | 30.71590 | -78.47269 | 35096 ft | 424 kts | 359° |
| 2026-05-06 20:55 | 30.77430 | -78.46324 | 35100 ft | 423 kts | 358° |
| 2026-05-06 20:55 | 30.83260 | -78.45375 | 35097 ft | 423 kts | 358° |
| 2026-05-06 20:56 | 30.89093 | -78.44422 | 35094 ft | 423 kts | 358° |
| 2026-05-06 20:56 | 30.94914 | -78.43470 | 35093 ft | 422 kts | 358° |
| 2026-05-06 20:57 | 31.00730 | -78.42523 | 35092 ft | 422 kts | 358° |
| 2026-05-06 20:57 | 31.06547 | -78.41570 | 35091 ft | 421 kts | 358° |
| 2026-05-06 20:58 | 31.12323 | -78.40626 | 35094 ft | 421 kts | 358° |
| 2026-05-06 20:58 | 31.18131 | -78.39670 | 35089 ft | 421 kts | 358° |
| 2026-05-06 20:59 | 31.23936 | -78.38716 | 35089 ft | 421 kts | 358° |
| 2026-05-06 20:59 | 31.29735 | -78.37764 | 35090 ft | 421 kts | 358° |
| 2026-05-06 21:00 | 31.35541 | -78.36806 | 35081 ft | 421 kts | 358° |
| 2026-05-06 21:00 | 31.41341 | -78.35850 | 35087 ft | 421 kts | 358° |
| 2026-05-06 21:01 | 31.47147 | -78.34894 | 35086 ft | 421 kts | 358° |
| 2026-05-06 21:01 | 31.52910 | -78.33940 | 35081 ft | 421 kts | 358° |
| 2026-05-06 21:02 | 31.58714 | -78.32979 | 35088 ft | 421 kts | 358° |
| 2026-05-06 21:02 | 31.64528 | -78.32015 | 35086 ft | 422 kts | 358° |
| 2026-05-06 21:03 | 31.70336 | -78.31055 | 35082 ft | 421 kts | 358° |
| 2026-05-06 21:03 | 31.76155 | -78.30089 | 35084 ft | 422 kts | 358° |
| 2026-05-06 21:04 | 31.81980 | -78.29118 | 35086 ft | 422 kts | 358° |
| 2026-05-06 21:04 | 31.87806 | -78.28148 | 35078 ft | 423 kts | 358° |
| 2026-05-06 21:05 | 31.93599 | -78.27180 | 35073 ft | 423 kts | 358° |
| 2026-05-06 21:05 | 31.99436 | -78.26202 | 35074 ft | 424 kts | 358° |
| 2026-05-06 21:06 | 32.05280 | -78.25089 | 35077 ft | 427 kts | 0° |
| 2026-05-06 21:06 | 32.11127 | -78.23818 | 35074 ft | 427 kts | 0° |
| 2026-05-06 21:07 | 32.16976 | -78.22553 | 35074 ft | 427 kts | 0° |
| 2026-05-06 21:07 | 32.22831 | -78.21292 | 35075 ft | 428 kts | 0° |
| 2026-05-06 21:08 | 32.27702 | -78.20238 | 35070 ft | 428 kts | 0° |
| 2026-05-06 21:08 | 32.33567 | -78.18972 | 35069 ft | 428 kts | 0° |
| 2026-05-06 21:09 | 32.40384 | -78.17510 | 35068 ft | 428 kts | 0° |
| 2026-05-06 21:09 | 32.46245 | -78.16233 | 35066 ft | 429 kts | 0° |
| 2026-05-06 21:10 | 32.51160 | -78.15159 | 35067 ft | 429 kts | 0° |
| 2026-05-06 21:10 | 32.56994 | -78.13884 | 35067 ft | 429 kts | 0° |
| 2026-05-06 21:11 | 32.62862 | -78.12607 | 35064 ft | 429 kts | 0° |
| 2026-05-06 21:11 | 32.68741 | -78.11328 | 35063 ft | 430 kts | 0° |
| 2026-05-06 21:12 | 32.74625 | -78.10045 | 35066 ft | 430 kts | 1° |
| 2026-05-06 21:12 | 32.80517 | -78.08757 | 35063 ft | 430 kts | 1° |
| 2026-05-06 21:13 | 32.86411 | -78.07469 | 35061 ft | 431 kts | 1° |
| 2026-05-06 21:13 | 32.92317 | -78.06172 | 35056 ft | 432 kts | 1° |
| 2026-05-06 21:14 | 32.98240 | -78.04873 | 35055 ft | 433 kts | 1° |
| 2026-05-06 21:14 | 33.04135 | -78.03578 | 35057 ft | 434 kts | 1° |
| 2026-05-06 21:15 | 33.10076 | -78.02268 | 35056 ft | 434 kts | 1° |
| 2026-05-06 21:15 | 33.16024 | -78.00974 | 35054 ft | 435 kts | 1° |
| 2026-05-06 21:16 | 33.21989 | -77.99667 | 35054 ft | 436 kts | 1° |
| 2026-05-06 21:16 | 33.27957 | -77.98340 | 35055 ft | 436 kts | 1° |
| 2026-05-06 21:17 | 33.33934 | -77.97011 | 35049 ft | 437 kts | 1° |
| 2026-05-06 21:17 | 33.39921 | -77.95683 | 35060 ft | 437 kts | 1° |
| 2026-05-06 21:18 | 33.45914 | -77.94353 | 35058 ft | 438 kts | 1° |
| 2026-05-06 21:18 | 33.51877 | -77.93026 | 35050 ft | 439 kts | 1° |
| 2026-05-06 21:19 | 33.57931 | -77.91680 | 35049 ft | 440 kts | 1° |
| 2026-05-06 21:19 | 33.63919 | -77.90344 | 35046 ft | 440 kts | 1° |
| 2026-05-06 21:20 | 33.69940 | -77.89001 | 35044 ft | 441 kts | 1° |
| 2026-05-06 21:20 | 33.75985 | -77.87652 | 35035 ft | 441 kts | 1° |
| 2026-05-06 21:21 | 33.82022 | -77.86225 | 35031 ft | 443 kts | 2° |
| 2026-05-06 21:21 | 33.88060 | -77.84709 | 35035 ft | 443 kts | 2° |
| 2026-05-06 21:22 | 33.94096 | -77.83189 | 35031 ft | 443 kts | 2° |
| 2026-05-06 21:22 | 34.00102 | -77.81678 | 35030 ft | 443 kts | 2° |
| 2026-05-06 21:23 | 34.06142 | -77.80156 | 35026 ft | 443 kts | 2° |
| 2026-05-06 21:23 | 34.12175 | -77.78632 | 35018 ft | 443 kts | 2° |
| 2026-05-06 21:24 | 34.18211 | -77.77104 | 35015 ft | 443 kts | 2° |
| 2026-05-06 21:24 | 34.24243 | -77.75575 | 35012 ft | 442 kts | 2° |
| 2026-05-06 21:25 | 34.30270 | -77.74046 | 35008 ft | 442 kts | 2° |
| 2026-05-06 21:25 | 34.36290 | -77.72516 | 35013 ft | 442 kts | 2° |
| 2026-05-06 21:26 | 34.42315 | -77.70982 | 35021 ft | 442 kts | 2° |
| 2026-05-06 21:26 | 34.48338 | -77.69449 | 35024 ft | 442 kts | 2° |
| 2026-05-06 21:27 | 34.54355 | -77.67901 | 35002 ft | 443 kts | 4° |
| 2026-05-06 21:27 | 34.57328 | -77.66752 | 34995 ft | 456 kts | 13° |
| 2026-05-06 21:27 | 34.60229 | -77.65105 | 34996 ft | 461 kts | 17° |
| 2026-05-06 21:28 | 34.65940 | -77.61635 | 34981 ft | 461 kts | 17° |
| 2026-05-06 21:28 | 34.71680 | -77.58153 | 34987 ft | 461 kts | 17° |
| 2026-05-06 21:29 | 34.77429 | -77.54680 | 34986 ft | 459 kts | 16° |
| 2026-05-06 21:29 | 34.83162 | -77.51236 | 34981 ft | 459 kts | 16° |
| 2026-05-06 21:30 | 34.88894 | -77.47797 | 34978 ft | 459 kts | 16° |
| 2026-05-06 21:30 | 34.94632 | -77.44388 | 34985 ft | 459 kts | 16° |
| 2026-05-06 21:31 | 35.00327 | -77.40969 | 34998 ft | 459 kts | 16° |
| 2026-05-06 21:31 | 35.06055 | -77.37530 | 35011 ft | 459 kts | 16° |
| 2026-05-06 21:32 | 35.11787 | -77.34074 | 35010 ft | 460 kts | 16° |
| 2026-05-06 21:32 | 35.20392 | -77.28873 | 35003 ft | 460 kts | 16° |
| 2026-05-06 21:33 | 35.26136 | -77.25396 | 35004 ft | 460 kts | 16° |
| 2026-05-06 21:33 | 35.31880 | -77.21907 | 34999 ft | 461 kts | 16° |
| 2026-05-06 21:34 | 35.37625 | -77.18415 | 34977 ft | 461 kts | 16° |
| 2026-05-06 21:34 | 35.43380 | -77.14906 | 34971 ft | 462 kts | 16° |
| 2026-05-06 21:35 | 35.49130 | -77.11401 | 34955 ft | 463 kts | 16° |
| 2026-05-06 21:35 | 35.54898 | -77.07873 | 34966 ft | 463 kts | 15° |
| 2026-05-06 21:36 | 35.60634 | -77.04352 | 34962 ft | 463 kts | 15° |
| 2026-05-06 21:36 | 35.66409 | -77.00822 | 34963 ft | 463 kts | 15° |
| 2026-05-06 21:37 | 35.72178 | -76.97277 | 34968 ft | 463 kts | 15° |
| 2026-05-06 21:37 | 35.77951 | -76.93724 | 34964 ft | 463 kts | 15° |
| 2026-05-06 21:38 | 35.83716 | -76.90177 | 34964 ft | 463 kts | 15° |
| 2026-05-06 21:38 | 35.89481 | -76.86623 | 34968 ft | 463 kts | 15° |
| 2026-05-06 21:39 | 35.95274 | -76.83443 | 34963 ft | 458 kts | 12° |
| 2026-05-06 21:39 | 36.01148 | -76.80391 | 34959 ft | 458 kts | 12° |
| 2026-05-06 21:40 | 36.07029 | -76.77372 | 34951 ft | 458 kts | 11° |
| 2026-05-06 21:40 | 36.12925 | -76.74326 | 34954 ft | 459 kts | 12° |
| 2026-05-06 21:41 | 36.18822 | -76.71271 | 34958 ft | 460 kts | 12° |
| 2026-05-06 21:41 | 36.24727 | -76.68206 | 34954 ft | 461 kts | 12° |
| 2026-05-06 21:42 | 36.30651 | -76.65134 | 34949 ft | 461 kts | 12° |
| 2026-05-06 21:42 | 36.36581 | -76.62073 | 34947 ft | 462 kts | 12° |
| 2026-05-06 21:43 | 36.42518 | -76.58955 | 34941 ft | 463 kts | 12° |
| 2026-05-06 21:43 | 36.48467 | -76.55829 | 34937 ft | 465 kts | 12° |
| 2026-05-06 21:44 | 36.54431 | -76.52708 | 34935 ft | 465 kts | 12° |
| 2026-05-06 21:44 | 36.60404 | -76.49581 | 34934 ft | 466 kts | 12° |
| 2026-05-06 21:45 | 36.66387 | -76.46444 | 34933 ft | 467 kts | 12° |
| 2026-05-06 21:45 | 36.72331 | -76.43321 | 34924 ft | 466 kts | 12° |
| 2026-05-06 21:46 | 36.78316 | -76.40184 | 34923 ft | 467 kts | 12° |
| 2026-05-06 21:46 | 36.84310 | -76.37014 | 34924 ft | 468 kts | 12° |
| 2026-05-06 21:47 | 36.90308 | -76.33861 | 34900 ft | 468 kts | 12° |
| 2026-05-06 21:47 | 36.96311 | -76.30718 | 34900 ft | 468 kts | 12° |
| 2026-05-06 21:48 | 37.02312 | -76.27544 | 34883 ft | 468 kts | 12° |
| 2026-05-06 21:48 | 37.08310 | -76.24354 | 34882 ft | 468 kts | 12° |
| 2026-05-06 21:49 | 37.14282 | -76.21179 | 34888 ft | 469 kts | 12° |
| 2026-05-06 21:49 | 37.20286 | -76.17981 | 34894 ft | 469 kts | 12° |
| 2026-05-06 21:50 | 37.26296 | -76.14770 | 34897 ft | 470 kts | 12° |
| 2026-05-06 21:50 | 37.32318 | -76.11547 | 34893 ft | 470 kts | 12° |
| 2026-05-06 21:51 | 37.38342 | -76.08317 | 34891 ft | 471 kts | 12° |
| 2026-05-06 21:51 | 37.44366 | -76.05078 | 34889 ft | 471 kts | 12° |
| 2026-05-06 21:52 | 37.50404 | -76.01845 | 34883 ft | 472 kts | 12° |
| 2026-05-06 21:52 | 37.56451 | -75.98587 | 34893 ft | 473 kts | 12° |
| 2026-05-06 21:53 | 37.62411 | -75.94889 | 34890 ft | 487 kts | 22° |
| 2026-05-06 21:53 | 37.68070 | -75.90193 | 34897 ft | 490 kts | 24° |
| 2026-05-06 21:54 | 37.73762 | -75.85445 | 34900 ft | 490 kts | 23° |
| 2026-05-06 21:54 | 37.79462 | -75.80721 | 34884 ft | 490 kts | 23° |
| 2026-05-06 21:55 | 37.85168 | -75.75977 | 34889 ft | 491 kts | 24° |
| 2026-05-06 21:55 | 37.90887 | -75.71208 | 34889 ft | 493 kts | 23° |
| 2026-05-06 21:56 | 37.96618 | -75.66422 | 34896 ft | 494 kts | 23° |
| 2026-05-06 21:56 | 38.01400 | -75.62422 | 34897 ft | 495 kts | 23° |
| 2026-05-06 21:57 | 38.07158 | -75.57595 | 34898 ft | 496 kts | 23° |
| 2026-05-06 21:57 | 38.12928 | -75.52745 | 34897 ft | 498 kts | 23° |
| 2026-05-06 21:58 | 38.18712 | -75.47889 | 34891 ft | 499 kts | 23° |
| 2026-05-06 21:58 | 38.24539 | -75.43047 | 34887 ft | 496 kts | 19° |
| 2026-05-06 21:59 | 38.27594 | -75.41178 | 34890 ft | 479 kts | 8° |
| 2026-05-06 21:59 | 38.30748 | -75.40047 | 34896 ft | 462 kts | 358° |
| 2026-05-06 21:59 | 38.37014 | -75.38753 | 34898 ft | 458 kts | 356° |
| 2026-05-06 22:00 | 38.43295 | -75.37478 | 34888 ft | 459 kts | 356° |
| 2026-05-06 22:00 | 38.49615 | -75.36144 | 34888 ft | 460 kts | 356° |
| 2026-05-06 22:01 | 38.55949 | -75.34791 | 34875 ft | 462 kts | 356° |
| 2026-05-06 22:01 | 38.62291 | -75.33435 | 34875 ft | 462 kts | 356° |
| 2026-05-06 22:02 | 38.68638 | -75.32079 | 34878 ft | 462 kts | 356° |
| 2026-05-06 22:02 | 38.74983 | -75.30693 | 34870 ft | 467 kts | 359° |
| 2026-05-06 22:03 | 38.78112 | -75.29479 | 34867 ft | 487 kts | 11° |
| 2026-05-06 22:03 | 38.81098 | -75.27047 | 34821 ft | 521 kts | 33° |
| 2026-05-06 22:03 | 38.83411 | -75.23423 | 34086 ft | 547 kts | 53° |
| 2026-05-06 22:03 | 38.84934 | -75.18821 | 32489 ft | 574 kts | 70° |
| 2026-05-06 22:04 | 38.86143 | -75.14007 | 32419 ft | 558 kts | 65° |
| 2026-05-06 22:04 | 38.87733 | -75.09521 | 32690 ft | 546 kts | 54° |
| 2026-05-06 22:04 | 38.89857 | -75.05553 | 32908 ft | 533 kts | 41° |
| 2026-05-06 22:04 | 38.92475 | -75.02288 | 33076 ft | 517 kts | 28° |
| 2026-05-06 22:05 | 38.95443 | -74.99828 | 33231 ft | 500 kts | 16° |
| 2026-05-06 22:05 | 38.98604 | -74.98199 | 33425 ft | 480 kts | 4° |
| 2026-05-06 22:05 | 39.01811 | -74.97353 | 33646 ft | 461 kts | 353° |
| 2026-05-06 22:05 | 39.04976 | -74.97045 | 33856 ft | 454 kts | 350° |
| 2026-05-06 22:06 | 39.08128 | -74.96834 | 34045 ft | 453 kts | 350° |
| 2026-05-06 22:06 | 39.11271 | -74.96607 | 34240 ft | 453 kts | 350° |
| 2026-05-06 22:06 | 39.14426 | -74.96351 | 34415 ft | 453 kts | 350° |
| 2026-05-06 22:06 | 39.17564 | -74.96082 | 34594 ft | 452 kts | 350° |
| 2026-05-06 22:07 | 39.20705 | -74.95806 | 34766 ft | 453 kts | 351° |
| 2026-05-06 22:07 | 39.23868 | -74.95241 | 34879 ft | 467 kts | 359° |
| 2026-05-06 22:07 | 39.27024 | -74.93963 | 34888 ft | 486 kts | 11° |
| 2026-05-06 22:07 | 39.30052 | -74.91856 | 34883 ft | 504 kts | 22° |
| 2026-05-06 22:08 | 39.35812 | -74.86568 | 34876 ft | 508 kts | 25° |
| 2026-05-06 22:08 | 39.41539 | -74.81236 | 34861 ft | 506 kts | 24° |
| 2026-05-06 22:09 | 39.47277 | -74.75977 | 34855 ft | 505 kts | 24° |
| 2026-05-06 22:09 | 39.53009 | -74.70738 | 34860 ft | 503 kts | 24° |
| 2026-05-06 22:10 | 39.58691 | -74.65560 | 34851 ft | 501 kts | 24° |
| 2026-05-06 22:10 | 39.64381 | -74.60338 | 34856 ft | 501 kts | 24° |
| 2026-05-06 22:11 | 39.70070 | -74.55095 | 34850 ft | 501 kts | 24° |
| 2026-05-06 22:11 | 39.75749 | -74.49850 | 34845 ft | 501 kts | 24° |
| 2026-05-06 22:12 | 39.81431 | -74.44599 | 34856 ft | 501 kts | 24° |
| 2026-05-06 22:12 | 39.87104 | -74.39343 | 34856 ft | 501 kts | 24° |
| 2026-05-06 22:13 | 39.92777 | -74.34076 | 34852 ft | 500 kts | 25° |
| 2026-05-06 22:13 | 39.98419 | -74.28825 | 34852 ft | 498 kts | 25° |
| 2026-05-06 22:14 | 40.04046 | -74.23575 | 34852 ft | 496 kts | 25° |
| 2026-05-06 22:14 | 40.09644 | -74.18352 | 34855 ft | 493 kts | 25° |
| 2026-05-06 22:15 | 40.15206 | -74.13141 | 34860 ft | 492 kts | 25° |
| 2026-05-06 22:15 | 40.20737 | -74.07879 | 34854 ft | 490 kts | 25° |
| 2026-05-06 22:16 | 40.26257 | -74.02679 | 34847 ft | 488 kts | 25° |
| 2026-05-06 22:16 | 40.31787 | -73.97504 | 34749 ft | 495 kts | 25° |
| 2026-05-06 22:17 | 40.34634 | -73.95007 | 34418 ft | 487 kts | 19° |
| 2026-05-06 22:17 | 40.37622 | -73.92998 | 34151 ft | 481 kts | 14° |
| 2026-05-06 22:17 | 40.40646 | -73.91136 | 33901 ft | 480 kts | 13° |
| 2026-05-06 22:17 | 40.43684 | -73.89287 | 33640 ft | 481 kts | 14° |
| 2026-05-06 22:18 | 40.46354 | -73.87653 | 33415 ft | 482 kts | 14° |
| 2026-05-06 22:18 | 40.49352 | -73.85805 | 33176 ft | 483 kts | 14° |
| 2026-05-06 22:18 | 40.52397 | -73.83922 | 32922 ft | 484 kts | 14° |
| 2026-05-06 22:18 | 40.55445 | -73.82033 | 32676 ft | 485 kts | 15° |
| 2026-05-06 22:19 | 40.58497 | -73.80133 | 32428 ft | 485 kts | 15° |
| 2026-05-06 22:19 | 40.61537 | -73.78166 | 32172 ft | 492 kts | 20° |
| 2026-05-06 22:19 | 40.64375 | -73.75518 | 31920 ft | 511 kts | 34° |
| 2026-05-06 22:19 | 40.66867 | -73.72112 | 31674 ft | 519 kts | 41° |
| 2026-05-06 22:20 | 40.69265 | -73.68546 | 31300 ft | 518 kts | 42° |
| 2026-05-06 22:20 | 40.71630 | -73.65010 | 30688 ft | 517 kts | 42° |
| 2026-05-06 22:20 | 40.74010 | -73.61474 | 30013 ft | 516 kts | 42° |
| 2026-05-06 22:20 | 40.76409 | -73.57943 | 29234 ft | 516 kts | 42° |
| 2026-05-06 22:21 | 40.78807 | -73.54435 | 28529 ft | 515 kts | 42° |
| 2026-05-06 22:21 | 40.81207 | -73.50918 | 27894 ft | 513 kts | 42° |
| 2026-05-06 22:21 | 40.83550 | -73.47470 | 27308 ft | 510 kts | 42° |
| 2026-05-06 22:21 | 40.85049 | -73.45262 | 27007 ft | 506 kts | 42° |
| 2026-05-06 22:22 | 40.87386 | -73.41815 | 26825 ft | 503 kts | 42° |
| 2026-05-06 22:22 | 40.89720 | -73.38368 | 26803 ft | 502 kts | 42° |
| 2026-05-06 22:22 | 40.92056 | -73.34923 | 26815 ft | 502 kts | 42° |
| 2026-05-06 22:22 | 40.94387 | -73.31476 | 26822 ft | 502 kts | 43° |
| 2026-05-06 22:23 | 40.96711 | -73.28029 | 26826 ft | 501 kts | 43° |
| 2026-05-06 22:23 | 40.99035 | -73.24583 | 26821 ft | 501 kts | 43° |
| 2026-05-06 22:23 | 41.01359 | -73.21137 | 26821 ft | 501 kts | 43° |
| 2026-05-06 22:23 | 41.03677 | -73.17690 | 26822 ft | 501 kts | 43° |
| 2026-05-06 22:24 | 41.05990 | -73.14252 | 26825 ft | 500 kts | 43° |
| 2026-05-06 22:24 | 41.08310 | -73.10800 | 26820 ft | 500 kts | 43° |
| 2026-05-06 22:24 | 41.10622 | -73.07354 | 26825 ft | 500 kts | 43° |
| 2026-05-06 22:24 | 41.12933 | -73.03903 | 26822 ft | 500 kts | 43° |
| 2026-05-06 22:25 | 41.15239 | -73.00455 | 26826 ft | 499 kts | 43° |
| 2026-05-06 22:25 | 41.17533 | -72.97021 | 26402 ft | 498 kts | 43° |
| 2026-05-06 22:25 | 41.19827 | -72.93532 | 25297 ft | 507 kts | 45° |
| 2026-05-06 22:25 | 41.21820 | -72.89692 | 24513 ft | 514 kts | 57° |
| 2026-05-06 22:26 | 41.23469 | -72.85490 | 23945 ft | 509 kts | 60° |
| 2026-05-06 22:26 | 41.25052 | -72.81304 | 23274 ft | 506 kts | 60° |
| 2026-05-06 22:26 | 41.26618 | -72.77159 | 22640 ft | 499 kts | 60° |
| 2026-05-06 22:26 | 41.28188 | -72.73064 | 22045 ft | 493 kts | 60° |
| 2026-05-06 22:27 | 41.29734 | -72.69047 | 21706 ft | 480 kts | 60° |
| 2026-05-06 22:27 | 41.31229 | -72.65154 | 21523 ft | 466 kts | 61° |
| 2026-05-06 22:27 | 41.32686 | -72.61334 | 21385 ft | 464 kts | 61° |
| 2026-05-06 22:27 | 41.34143 | -72.57502 | 21262 ft | 463 kts | 61° |
| 2026-05-06 22:28 | 41.35595 | -72.53683 | 21160 ft | 462 kts | 61° |
| 2026-05-06 22:28 | 41.37044 | -72.49858 | 21057 ft | 461 kts | 61° |
| 2026-05-06 22:28 | 41.38466 | -72.46100 | 20947 ft | 460 kts | 62° |
| 2026-05-06 22:28 | 41.39906 | -72.42290 | 20855 ft | 460 kts | 62° |
| 2026-05-06 22:29 | 41.41341 | -72.38495 | 20803 ft | 459 kts | 62° |
| 2026-05-06 22:29 | 41.42775 | -72.34695 | 20807 ft | 459 kts | 62° |
| 2026-05-06 22:29 | 41.44208 | -72.30893 | 20820 ft | 459 kts | 62° |
| 2026-05-06 22:29 | 41.45636 | -72.27090 | 20828 ft | 458 kts | 62° |
| 2026-05-06 22:30 | 41.47063 | -72.23287 | 20831 ft | 458 kts | 62° |
| 2026-05-06 22:30 | 41.48484 | -72.19486 | 20792 ft | 457 kts | 62° |
| 2026-05-06 22:30 | 41.49889 | -72.15673 | 19987 ft | 461 kts | 63° |
| 2026-05-06 22:30 | 41.51308 | -72.11779 | 19024 ft | 469 kts | 64° |
| 2026-05-06 22:31 | 41.52729 | -72.07877 | 18377 ft | 466 kts | 64° |
| 2026-05-06 22:31 | 41.54140 | -72.04004 | 17779 ft | 461 kts | 64° |
| 2026-05-06 22:31 | 41.55520 | -72.00162 | 17099 ft | 458 kts | 66° |
| 2026-05-06 22:31 | 41.56733 | -71.96244 | 16535 ft | 452 kts | 68° |
| 2026-05-06 22:32 | 41.57891 | -71.92390 | 16127 ft | 443 kts | 69° |
| 2026-05-06 22:32 | 41.59020 | -71.88617 | 15866 ft | 430 kts | 69° |
| 2026-05-06 22:32 | 41.60116 | -71.84933 | 15727 ft | 424 kts | 69° |
| 2026-05-06 22:32 | 41.60466 | -71.83751 | 15528 ft | 424 kts | 69° |
| 2026-05-06 22:33 | 41.61355 | -71.80747 | 14882 ft | 427 kts | 69° |
| 2026-05-06 22:33 | 41.62433 | -71.77091 | 14500 ft | 418 kts | 69° |
| 2026-05-06 22:33 | 41.63492 | -71.73493 | 14247 ft | 416 kts | 69° |
| 2026-05-06 22:33 | 41.64552 | -71.69893 | 14035 ft | 415 kts | 69° |
| 2026-05-06 22:34 | 41.65606 | -71.66311 | 13834 ft | 414 kts | 69° |
| 2026-05-06 22:34 | 41.66653 | -71.62734 | 13628 ft | 413 kts | 69° |
| 2026-05-06 22:34 | 41.67697 | -71.59167 | 13421 ft | 411 kts | 69° |
| 2026-05-06 22:34 | 41.68728 | -71.55658 | 13186 ft | 399 kts | 69° |
| 2026-05-06 22:35 | 41.69723 | -71.52262 | 12981 ft | 386 kts | 69° |
| 2026-05-06 22:35 | 41.70671 | -71.49012 | 12805 ft | 373 kts | 69° |
| 2026-05-06 22:35 | 41.71601 | -71.45831 | 12614 ft | 361 kts | 69° |
| 2026-05-06 22:35 | 41.72300 | -71.43504 | 12456 ft | 357 kts | 65° |
| 2026-05-06 22:36 | 41.73465 | -71.40562 | 12264 ft | 357 kts | 59° |
| 2026-05-06 22:36 | 41.74705 | -71.37684 | 12086 ft | 356 kts | 59° |
| 2026-05-06 22:36 | 41.75944 | -71.34815 | 11909 ft | 355 kts | 59° |
| 2026-05-06 22:36 | 41.77173 | -71.31952 | 11739 ft | 354 kts | 59° |
| 2026-05-06 22:37 | 41.78397 | -71.29091 | 11568 ft | 353 kts | 59° |
| 2026-05-06 22:37 | 41.79617 | -71.26233 | 11399 ft | 352 kts | 59° |
| 2026-05-06 22:37 | 41.80822 | -71.23408 | 11187 ft | 344 kts | 59° |
| 2026-05-06 22:37 | 41.81999 | -71.20642 | 11016 ft | 339 kts | 60° |
| 2026-05-06 22:38 | 41.83171 | -71.17888 | 10992 ft | 340 kts | 59° |
| 2026-05-06 22:38 | 41.84340 | -71.15140 | 11005 ft | 339 kts | 59° |
| 2026-05-06 22:38 | 41.85510 | -71.12385 | 11018 ft | 340 kts | 60° |
| 2026-05-06 22:38 | 41.86685 | -71.09636 | 10919 ft | 340 kts | 59° |
| 2026-05-06 22:39 | 41.87871 | -71.06897 | 10720 ft | 338 kts | 59° |
| 2026-05-06 22:39 | 41.89055 | -71.04165 | 10483 ft | 338 kts | 59° |
| 2026-05-06 22:39 | 41.90231 | -71.01448 | 10261 ft | 336 kts | 59° |
| 2026-05-06 22:39 | 41.91402 | -70.98738 | 10077 ft | 335 kts | 59° |
| 2026-05-06 22:40 | 41.92568 | -70.96035 | 9916 ft | 335 kts | 59° |
| 2026-05-06 22:40 | 41.93720 | -70.93361 | 9770 ft | 335 kts | 59° |
| 2026-05-06 22:40 | 41.94883 | -70.90654 | 9638 ft | 333 kts | 59° |
| 2026-05-06 22:40 | 41.96039 | -70.87966 | 9502 ft | 333 kts | 59° |
| 2026-05-06 22:41 | 41.98358 | -70.82561 | 9250 ft | 332 kts | 60° |
| 2026-05-06 22:41 | 41.99509 | -70.79873 | 9115 ft | 332 kts | 60° |
| 2026-05-06 22:41 | 42.00669 | -70.77181 | 8991 ft | 333 kts | 58° |
| 2026-05-06 22:42 | 42.02053 | -70.74717 | 8849 ft | 326 kts | 47° |
| 2026-05-06 22:42 | 42.03041 | -70.73226 | 8756 ft | 319 kts | 46° |
| 2026-05-06 22:42 | 42.04513 | -70.71053 | 8612 ft | 309 kts | 45° |
| 2026-05-06 22:42 | 42.05950 | -70.68928 | 8462 ft | 307 kts | 46° |
| 2026-05-06 22:43 | 42.07388 | -70.66791 | 8337 ft | 308 kts | 46° |
| 2026-05-06 22:43 | 42.08816 | -70.64658 | 8200 ft | 307 kts | 46° |
| 2026-05-06 22:43 | 42.10266 | -70.62561 | 8061 ft | 305 kts | 39° |
| 2026-05-06 22:43 | 42.12120 | -70.61108 | 7919 ft | 314 kts | 11° |
| 2026-05-06 22:44 | 42.14249 | -70.60462 | 7568 ft | 313 kts | 4° |
| 2026-05-06 22:44 | 42.16387 | -70.59953 | 7125 ft | 313 kts | 4° |
| 2026-05-06 22:44 | 42.18533 | -70.59421 | 6681 ft | 314 kts | 4° |
| 2026-05-06 22:44 | 42.20670 | -70.58864 | 6309 ft | 312 kts | 5° |
| 2026-05-06 22:45 | 42.22794 | -70.58291 | 5931 ft | 311 kts | 5° |
| 2026-05-06 22:45 | 42.24904 | -70.57707 | 5654 ft | 307 kts | 5° |
| 2026-05-06 22:45 | 42.26977 | -70.57129 | 5450 ft | 301 kts | 5° |
| 2026-05-06 22:45 | 42.29001 | -70.56561 | 5287 ft | 294 kts | 5° |
| 2026-05-06 22:46 | 42.30981 | -70.56059 | 5126 ft | 283 kts | 357° |
| 2026-05-06 22:46 | 42.32842 | -70.56325 | 5016 ft | 273 kts | 329° |
| 2026-05-06 22:46 | 42.34383 | -70.57657 | 5023 ft | 253 kts | 307° |
| 2026-05-06 22:46 | 42.35585 | -70.59270 | 5008 ft | 234 kts | 303° |
| 2026-05-06 22:47 | 42.36694 | -70.60820 | 4839 ft | 226 kts | 303° |
| 2026-05-06 22:47 | 42.37778 | -70.62307 | 4597 ft | 219 kts | 303° |
| 2026-05-06 22:47 | 42.38845 | -70.63752 | 4347 ft | 215 kts | 303° |
| 2026-05-06 22:47 | 42.39910 | -70.65179 | 4096 ft | 216 kts | 303° |
| 2026-05-06 22:48 | 42.40984 | -70.66602 | 3893 ft | 216 kts | 303° |
| 2026-05-06 22:48 | 42.42059 | -70.68021 | 3747 ft | 215 kts | 304° |
| 2026-05-06 22:48 | 42.43133 | -70.69436 | 3609 ft | 215 kts | 304° |
| 2026-05-06 22:48 | 42.44199 | -70.70842 | 3478 ft | 214 kts | 304° |
| 2026-05-06 22:49 | 42.45266 | -70.72247 | 3356 ft | 213 kts | 304° |
| 2026-05-06 22:49 | 42.46331 | -70.73645 | 3233 ft | 213 kts | 304° |
| 2026-05-06 22:49 | 42.47379 | -70.75067 | 3108 ft | 210 kts | 299° |
| 2026-05-06 22:49 | 42.48287 | -70.76591 | 2988 ft | 207 kts | 296° |
| 2026-05-06 22:50 | 42.49160 | -70.78137 | 2955 ft | 207 kts | 296° |
| 2026-05-06 22:50 | 42.50031 | -70.79689 | 2965 ft | 206 kts | 296° |
| 2026-05-06 22:50 | 42.50888 | -70.81217 | 2973 ft | 207 kts | 296° |
| 2026-05-06 22:50 | 42.51743 | -70.82777 | 2975 ft | 203 kts | 291° |
| 2026-05-06 22:51 | 42.52413 | -70.84439 | 2980 ft | 199 kts | 286° |
| 2026-05-06 22:51 | 42.53029 | -70.86120 | 2979 ft | 199 kts | 286° |
| 2026-05-06 22:51 | 42.53639 | -70.87797 | 2981 ft | 199 kts | 285° |
| 2026-05-06 22:51 | 42.54024 | -70.89523 | 2970 ft | 182 kts | 258° |
| 2026-05-06 22:52 | 42.53605 | -70.90970 | 2961 ft | 154 kts | 233° |
| 2026-05-06 22:52 | 42.52837 | -70.92002 | 3024 ft | 158 kts | 221° |
| 2026-05-06 22:52 | 42.51899 | -70.92804 | 2932 ft | 160 kts | 213° |
| 2026-05-06 22:52 | 42.50907 | -70.93446 | 2758 ft | 157 kts | 208° |
| 2026-05-06 22:53 | 42.49891 | -70.93994 | 2552 ft | 155 kts | 206° |
| 2026-05-06 22:53 | 42.48945 | -70.94463 | 2382 ft | 141 kts | 206° |
| 2026-05-06 22:53 | 42.48015 | -70.94918 | 2206 ft | 142 kts | 206° |
| 2026-05-06 22:53 | 42.47089 | -70.95370 | 2013 ft | 141 kts | 205° |
| 2026-05-06 22:54 | 42.46175 | -70.95815 | 1822 ft | 139 kts | 204° |
| 2026-05-06 22:54 | 42.45260 | -70.96260 | 1632 ft | 139 kts | 204° |
| 2026-05-06 22:54 | 42.44355 | -70.96700 | 1442 ft | 138 kts | 204° |
| 2026-05-06 22:54 | 42.43453 | -70.97139 | 1253 ft | 137 kts | 203° |
| 2026-05-06 22:55 | 42.42570 | -70.97568 | 1065 ft | 136 kts | 202° |
| 2026-05-06 22:55 | 42.41679 | -70.98000 | 896 ft | 136 kts | 201° |
| 2026-05-06 22:55 | 42.40789 | -70.98433 | 728 ft | 136 kts | 200° |
| 2026-05-06 22:55 | 42.39889 | -70.98872 | 560 ft | 137 kts | 200° |
| 2026-05-06 22:56 | 42.39030 | -70.99347 | 397 ft | 132 kts | 199° |
| 2026-05-06 22:56 | 42.38152 | -70.99720 | 206 ft | 134 kts | 198° |
| 2026-05-06 22:56 | 42.37284 | -71.00147 | 50 ft | 129 kts | 198° |
| 2026-05-06 22:56 | 42.36598 | -71.00464 | 31 ft | 65 kts | 199° |
| 2026-05-06 22:57 | 42.36403 | -71.00602 | 31 ft | 15 kts | 248° |
| 2026-05-06 22:57 | 42.36427 | -71.00738 | 31 ft | 16 kts | 288° |
| 2026-05-06 22:57 | 42.36469 | -71.00884 | 31 ft | 17 kts | 292° |
| 2026-05-06 22:57 | 42.36517 | -71.01043 | 31 ft | 19 kts | 292° |
| 2026-05-06 22:58 | 42.36553 | -71.01164 | 31 ft | 0 kts | 292° |
| 2026-05-06 22:59 | 42.36561 | -71.01191 | 31 ft | 6 kts | 292° |
| 2026-05-06 22:59 | 42.36583 | -71.01264 | 31 ft | 11 kts | 291° |
| 2026-05-06 22:59 | 42.36604 | -71.01343 | 31 ft | 0 kts | 287° |
| 2026-05-06 22:59 | 42.36608 | -71.01359 | 31 ft | 3 kts | 287° |
| 2026-05-06 23:00 | 42.36608 | -71.01362 | 31 ft | 0 kts | 287° |